Time;durP1;ratioP1;P1;durP2;ratioP2;P2;SDS_P1;SDS_P2;PMS_P1;PMS_P2;Temp;Humidity;BMP_temperature;BMP_pressure;BME280_temperature;BME280_humidity;BME280_pressure;Samples;Min_cycle;Max_cycle;Signal;HPM_P1;HPM_P2
2023/04/08 00:02:10;;;;;;;;;;;6.50;99.90;;;;;;5109451;28;19926;-75
2023/04/08 00:04:35;;;;;;;;;;;6.40;99.90;;;;;;5099564;28;20007;-76
2023/04/08 00:07:01;;;;;;;;;;;6.40;99.90;;;;;;5109185;28;20381;-76
2023/04/08 00:09:26;;;;;;;;;;;6.40;99.90;;;;;;5109159;28;19920;-76
2023/04/08 00:11:52;;;;;;;;;;;6.30;99.90;;;;;;5107460;28;19931;-76
2023/04/08 00:14:17;;;;;;;;;;;6.30;99.90;;;;;;5110744;28;19920;-76
2023/04/08 00:16:43;;;;;;;;;;;6.30;99.90;;;;;;5096689;28;19920;-76
2023/04/08 00:19:08;;;;;;;;;;;6.30;99.90;;;;;;5110694;28;19924;-76
2023/04/08 00:21:34;;;;;;;;;;;6.20;99.90;;;;;;5107862;28;20014;-76
2023/04/08 00:24:00;;;;;;;;;;;6.30;99.90;;;;;;5110628;28;20012;-76
2023/04/08 00:26:26;;;;;;;;;;;6.20;99.90;;;;;;5089509;28;19919;-76
2023/04/08 00:28:51;;;;;;;;;;;6.20;99.90;;;;;;5110489;28;19944;-76
2023/04/08 00:31:17;;;;;;;;;;;6.30;99.90;;;;;;5107386;28;19920;-76
2023/04/08 00:33:42;;;;;;;;;;;6.20;99.90;;;;;;5109559;28;20010;-76
2023/04/08 00:36:08;;;;;;;;;;;6.20;99.90;;;;;;5104256;28;20011;-76
2023/04/08 00:38:33;;;;;;;;;;;6.20;99.90;;;;;;5103262;28;19927;-76
2023/04/08 00:40:59;;;;;;;;;;;6.10;99.90;;;;;;5104237;28;19927;-76
2023/04/08 00:43:24;;;;;;;;;;;6.10;99.90;;;;;;5103027;28;20303;-76
2023/04/08 00:45:50;;;;;;;;;;;6.00;99.90;;;;;;5102660;28;19953;-75
2023/04/08 00:48:16;;;;;;;;;;;6.10;99.90;;;;;;5101850;28;20396;-75
2023/04/08 00:50:45;;;;;;;;;;;6.00;99.90;;;;;;5107191;28;19924;-75
2023/04/08 00:53:14;;;;;;;;;;;6.00;99.90;;;;;;5110612;28;19920;-75
2023/04/08 00:55:40;;;;;;;;;;;5.90;99.90;;;;;;5105676;28;19996;-76
2023/04/08 00:58:05;;;;;;;;;;;5.90;99.90;;;;;;5110256;28;19924;-75
2023/04/08 01:00:31;;;;;;;;;;;6.00;99.90;;;;;;5092083;28;20453;-76
2023/04/08 01:03:04;;;;;;;;;;;5.90;99.90;;;;;;5107084;28;19977;-75
2023/04/08 01:05:29;;;;;;;;;;;5.90;99.90;;;;;;5103251;28;20393;-75
2023/04/08 01:07:57;;;;;;;;;;;5.90;99.90;;;;;;5105114;28;20030;-76
2023/04/08 01:10:26;;;;;;;;;;;5.90;99.90;;;;;;5102976;28;19926;-75
2023/04/08 01:12:55;;;;;;;;;;;5.90;99.90;;;;;;5104727;28;20332;-76
2023/04/08 01:15:22;;;;;;;;;;;5.80;99.90;;;;;;5103034;28;19919;-75
2023/04/08 01:17:49;;;;;;;;;;;5.90;99.90;;;;;;5101497;28;19925;-75
2023/04/08 01:20:15;;;;;;;;;;;5.80;99.90;;;;;;5102004;28;19923;-76
2023/04/08 01:22:59;;;;;;;;;;;5.80;99.90;;;;;;5093835;28;19973;-75
2023/04/08 01:25:28;;;;;;;;;;;5.80;99.90;;;;;;5105128;28;19919;-76
2023/04/08 01:27:56;;;;;;;;;;;5.80;99.90;;;;;;5098825;28;19920;-75
2023/04/08 01:30:23;;;;;;;;;;;5.80;99.90;;;;;;5097703;28;19965;-76
2023/04/08 01:32:50;;;;;;;;;;;5.80;99.90;;;;;;5093696;28;19924;-75
2023/04/08 01:35:17;;;;;;;;;;;5.80;99.90;;;;;;5091723;28;19920;-76
2023/04/08 01:37:43;;;;;;;;;;;5.80;99.90;;;;;;5091582;28;20394;-76
2023/04/08 01:40:09;;;;;;;;;;;5.80;99.90;;;;;;5104231;28;19920;-76
2023/04/08 01:42:35;;;;;;;;;;;5.90;99.90;;;;;;5098359;28;19973;-76
2023/04/08 01:45:02;;;;;;;;;;;5.90;99.90;;;;;;5097568;28;19926;-76
2023/04/08 01:47:28;;;;;;;;;;;5.90;99.90;;;;;;5099052;28;19920;-75
2023/04/08 01:49:54;;;;;;;;;;;6.00;99.90;;;;;;5104148;28;19927;-76
2023/04/08 01:52:21;;;;;;;;;;;6.00;99.90;;;;;;5090876;28;19920;-76
2023/04/08 01:54:47;;;;;;;;;;;6.00;99.90;;;;;;5103799;28;19965;-76
2023/04/08 01:57:18;;;;;;;;;;;6.00;99.90;;;;;;5097013;28;19920;-75
2023/04/08 01:59:47;;;;;;;;;;;6.00;99.90;;;;;;5095376;28;19965;-76
2023/04/08 02:02:14;;;;;;;;;;;6.00;99.90;;;;;;5100933;28;20014;-76
2023/04/08 02:04:39;;;;;;;;;;;6.00;99.90;;;;;;5100488;28;19920;-75
2023/04/08 02:07:05;;;;;;;;;;;6.00;99.90;;;;;;5106262;28;19926;-75
2023/04/08 02:09:31;;;;;;;;;;;6.00;99.90;;;;;;5078712;28;19931;-75
2023/04/08 02:11:56;;;;;;;;;;;6.00;99.90;;;;;;5100915;28;20306;-75
2023/04/08 02:14:22;;;;;;;;;;;5.90;99.90;;;;;;5101835;28;19923;-75
2023/04/08 02:16:57;;;;;;;;;;;5.90;99.90;;;;;;5105501;28;19952;-76
2023/04/08 02:19:28;;;;;;;;;;;5.90;99.90;;;;;;5105722;28;19927;-75
2023/04/08 02:21:56;;;;;;;;;;;5.90;99.90;;;;;;5097220;28;19924;-76
2023/04/08 02:24:21;;;;;;;;;;;5.90;99.90;;;;;;5103215;28;19931;-76
2023/04/08 02:26:49;;;;;;;;;;;5.90;99.90;;;;;;5097642;28;19920;-75
2023/04/08 02:29:15;;;;;;;;;;;5.80;99.90;;;;;;5088400;28;19934;-76
2023/04/08 02:31:41;;;;;;;;;;;5.80;99.90;;;;;;5101424;28;19920;-75
2023/04/08 02:34:08;;;;;;;;;;;5.80;99.90;;;;;;5101438;28;19946;-76
2023/04/08 02:36:34;;;;;;;;;;;5.80;99.90;;;;;;5108130;28;20038;-76
2023/04/08 02:38:59;;;;;;;;;;;5.80;99.90;;;;;;5103644;28;20006;-76
2023/04/08 02:41:29;;;;;;;;;;;5.80;99.90;;;;;;5092993;28;19926;-76
2023/04/08 02:43:54;;;;;;;;;;;5.80;99.90;;;;;;5089749;28;19929;-76
2023/04/08 02:46:20;;;;;;;;;;;5.70;99.90;;;;;;5091542;28;20896;-76
2023/04/08 02:48:45;;;;;;;;;;;5.80;99.90;;;;;;5084309;28;19920;-76
2023/04/08 02:51:11;;;;;;;;;;;5.80;99.90;;;;;;5094613;28;20408;-76
2023/04/08 02:53:36;;;;;;;;;;;5.70;99.90;;;;;;5108499;28;20292;-75
2023/04/08 02:56:02;;;;;;;;;;;5.80;99.90;;;;;;5102373;28;19974;-75
2023/04/08 02:58:28;;;;;;;;;;;5.70;99.90;;;;;;5090908;28;19920;-75
2023/04/08 03:00:53;;;;;;;;;;;5.70;99.90;;;;;;5101242;28;20338;-76
2023/04/08 03:03:19;;;;;;;;;;;5.70;99.90;;;;;;5109042;28;19946;-76
2023/04/08 03:05:44;;;;;;;;;;;5.60;99.90;;;;;;5106366;28;20303;-76
2023/04/08 03:08:10;;;;;;;;;;;5.60;99.90;;;;;;5099532;28;19924;-75
2023/04/08 03:10:35;;;;;;;;;;;5.60;99.90;;;;;;5088707;28;19924;-75
2023/04/08 03:13:01;;;;;;;;;;;5.60;99.90;;;;;;5107382;28;19931;-76
2023/04/08 03:15:26;;;;;;;;;;;5.60;99.90;;;;;;5097341;28;19974;-75
2023/04/08 03:17:52;;;;;;;;;;;5.50;99.90;;;;;;5100397;28;20050;-75
2023/04/08 03:20:17;;;;;;;;;;;5.50;99.90;;;;;;5107764;28;20335;-75
2023/04/08 03:22:43;;;;;;;;;;;5.50;99.90;;;;;;5106523;28;19919;-76
2023/04/08 03:25:08;;;;;;;;;;;5.50;99.90;;;;;;5108366;28;19920;-76
2023/04/08 03:27:34;;;;;;;;;;;5.50;99.90;;;;;;5105277;28;19926;-75
2023/04/08 03:29:59;;;;;;;;;;;5.50;99.90;;;;;;5094305;28;19924;-76
2023/04/08 03:32:25;;;;;;;;;;;5.50;99.90;;;;;;5093355;28;20289;-76
2023/04/08 03:34:50;;;;;;;;;;;5.50;99.90;;;;;;5106877;28;19924;-76
2023/04/08 03:37:16;;;;;;;;;;;5.50;99.90;;;;;;5106037;28;19927;-75
2023/04/08 03:39:42;;;;;;;;;;;5.40;99.90;;;;;;5106506;28;19919;-75
2023/04/08 03:42:07;;;;;;;;;;;5.50;99.90;;;;;;5104789;28;19962;-75
2023/04/08 03:44:33;;;;;;;;;;;5.40;99.90;;;;;;5105518;28;19920;-75
2023/04/08 03:46:58;;;;;;;;;;;5.40;99.90;;;;;;5106345;28;20304;-75
2023/04/08 03:49:24;;;;;;;;;;;5.50;99.90;;;;;;5094554;28;19927;-75
2023/04/08 03:51:49;;;;;;;;;;;5.40;99.90;;;;;;5093673;28;19922;-75
2023/04/08 03:54:15;;;;;;;;;;;5.40;99.90;;;;;;5105362;28;20014;-75
2023/04/08 03:56:41;;;;;;;;;;;5.50;99.90;;;;;;5107666;28;19941;-76
2023/04/08 03:59:06;;;;;;;;;;;5.50;99.90;;;;;;5104648;28;20007;-76
2023/04/08 04:01:32;;;;;;;;;;;5.50;99.90;;;;;;5088887;28;19929;-76
2023/04/08 04:03:57;;;;;;;;;;;5.50;99.90;;;;;;5086618;28;19946;-75
2023/04/08 04:06:23;;;;;;;;;;;5.50;99.90;;;;;;5106587;28;19927;-75
2023/04/08 04:08:49;;;;;;;;;;;5.50;99.90;;;;;;5094090;28;19919;-75
2023/04/08 04:11:15;;;;;;;;;;;5.60;99.90;;;;;;5108044;28;20335;-75
2023/04/08 04:13:40;;;;;;;;;;;5.60;99.90;;;;;;5101059;28;19920;-75
2023/04/08 04:16:06;;;;;;;;;;;5.60;99.90;;;;;;5103027;28;19973;-75
2023/04/08 04:18:31;;;;;;;;;;;5.70;99.90;;;;;;5102527;28;19928;-75
2023/04/08 04:20:57;;;;;;;;;;;5.70;99.90;;;;;;5099024;28;20005;-75
2023/04/08 04:23:24;;;;;;;;;;;5.70;99.90;;;;;;5102336;28;19924;-76
2023/04/08 04:25:50;;;;;;;;;;;5.70;99.90;;;;;;5106823;28;19920;-75
2023/04/08 04:28:15;;;;;;;;;;;5.80;99.90;;;;;;5088786;28;19978;-76
2023/04/08 04:30:41;;;;;;;;;;;5.80;99.90;;;;;;5106196;28;19955;-76
2023/04/08 04:33:06;;;;;;;;;;;5.80;99.90;;;;;;5092352;28;20015;-75
2023/04/08 04:35:32;;;;;;;;;;;5.80;99.90;;;;;;5089520;28;19923;-75
2023/04/08 04:37:58;;;;;;;;;;;5.90;99.90;;;;;;5100588;28;19978;-75
2023/04/08 04:40:23;;;;;;;;;;;5.90;99.90;;;;;;5106545;28;19959;-76
2023/04/08 04:42:49;;;;;;;;;;;5.90;99.90;;;;;;5100148;28;20396;-75
2023/04/08 04:45:14;;;;;;;;;;;5.90;99.90;;;;;;5105811;28;19962;-75
2023/04/08 04:47:40;;;;;;;;;;;6.00;99.90;;;;;;5101141;28;19920;-76
2023/04/08 04:50:06;;;;;;;;;;;6.00;99.90;;;;;;5100436;28;19920;-75
2023/04/08 04:52:31;;;;;;;;;;;6.00;99.90;;;;;;5090229;28;19924;-75
2023/04/08 04:54:57;;;;;;;;;;;6.00;99.90;;;;;;5097352;28;19953;-75
2023/04/08 04:57:23;;;;;;;;;;;6.00;99.90;;;;;;5092325;28;20309;-76
2023/04/08 04:59:48;;;;;;;;;;;6.00;99.90;;;;;;5093609;28;19920;-76
2023/04/08 05:02:14;;;;;;;;;;;6.10;99.90;;;;;;5094461;28;19920;-75
2023/04/08 05:04:39;;;;;;;;;;;6.10;99.90;;;;;;5097015;28;20304;-75
2023/04/08 05:07:05;;;;;;;;;;;6.10;99.90;;;;;;5094476;28;19920;-75
2023/04/08 05:09:30;;;;;;;;;;;6.10;99.90;;;;;;5097022;28;19963;-76
2023/04/08 05:11:56;;;;;;;;;;;6.10;99.90;;;;;;5093896;28;19974;-75
2023/04/08 05:14:22;;;;;;;;;;;6.10;99.90;;;;;;5097908;28;20347;-76
2023/04/08 05:16:47;;;;;;;;;;;6.10;99.90;;;;;;5095079;28;19966;-75
2023/04/08 05:19:13;;;;;;;;;;;6.10;99.90;;;;;;5090753;28;20343;-75
2023/04/08 05:21:38;;;;;;;;;;;6.10;99.90;;;;;;5093501;28;19924;-75
2023/04/08 05:24:04;;;;;;;;;;;6.10;99.90;;;;;;5096838;28;19958;-75
2023/04/08 05:26:29;;;;;;;;;;;6.10;99.90;;;;;;5094488;28;19926;-76
2023/04/08 05:28:55;;;;;;;;;;;6.20;99.90;;;;;;5095566;28;20284;-75
2023/04/08 05:31:20;;;;;;;;;;;6.20;99.90;;;;;;5090809;28;19931;-75
2023/04/08 05:33:46;;;;;;;;;;;6.20;99.90;;;;;;5095156;28;19920;-75
2023/04/08 05:36:12;;;;;;;;;;;6.20;99.90;;;;;;5093546;28;19927;-76
2023/04/08 05:38:38;;;;;;;;;;;6.20;99.90;;;;;;5094443;28;20329;-75
2023/04/08 05:41:04;;;;;;;;;;;6.20;99.90;;;;;;5092038;28;19923;-76
2023/04/08 05:43:31;;;;;;;;;;;6.20;99.90;;;;;;5092117;28;20029;-76
2023/04/08 05:45:57;;;;;;;;;;;6.30;99.90;;;;;;5092261;28;20318;-76
2023/04/08 05:48:22;;;;;;;;;;;6.30;99.90;;;;;;5093025;28;19924;-75
2023/04/08 05:50:47;;;;;;;;;;;6.30;99.90;;;;;;5094831;28;19962;-76
2023/04/08 05:53:13;;;;;;;;;;;6.30;99.90;;;;;;5110210;28;20316;-75
2023/04/08 05:55:39;;;;;;;;;;;6.30;99.90;;;;;;5106768;28;19923;-76
2023/04/08 05:58:05;;;;;;;;;;;6.40;99.90;;;;;;5108938;28;19920;-75
2023/04/08 06:00:31;;;;;;;;;;;6.50;99.90;;;;;;5095511;28;19927;-75
2023/04/08 06:02:56;;;;;;;;;;;6.50;99.90;;;;;;5109530;28;19931;-75
2023/04/08 06:05:22;;;;;;;;;;;6.50;99.90;;;;;;5105826;28;19936;-76
2023/04/08 06:07:47;;;;;;;;;;;6.60;99.90;;;;;;5107570;28;20018;-75
2023/04/08 06:10:13;;;;;;;;;;;6.60;99.90;;;;;;5105272;28;19927;-76
2023/04/08 06:12:38;;;;;;;;;;;6.60;99.90;;;;;;5109495;28;19920;-75
2023/04/08 06:15:05;;;;;;;;;;;6.60;99.90;;;;;;5105850;28;19928;-75
2023/04/08 06:17:30;;;;;;;;;;;6.60;99.90;;;;;;5108073;28;19919;-75
2023/04/08 06:19:55;;;;;;;;;;;6.70;99.90;;;;;;5105646;28;19931;-76
2023/04/08 06:22:21;;;;;;;;;;;6.70;99.90;;;;;;5108814;28;19923;-75
2023/04/08 06:24:47;;;;;;;;;;;6.60;99.90;;;;;;5094372;28;20396;-76
2023/04/08 06:27:12;;;;;;;;;;;6.60;99.90;;;;;;5106899;28;19927;-76
2023/04/08 06:29:38;;;;;;;;;;;6.60;99.90;;;;;;5104655;28;19924;-75
2023/04/08 06:32:04;;;;;;;;;;;6.60;99.90;;;;;;5106604;28;19920;-75
2023/04/08 06:34:30;;;;;;;;;;;6.60;99.90;;;;;;5103890;28;19923;-75
2023/04/08 06:36:56;;;;;;;;;;;6.60;99.90;;;;;;5107214;28;19931;-75
2023/04/08 06:39:21;;;;;;;;;;;6.60;99.90;;;;;;5104804;28;19924;-76
2023/04/08 06:41:47;;;;;;;;;;;6.60;99.90;;;;;;5107285;28;19920;-75
2023/04/08 06:44:13;;;;;;;;;;;6.60;99.90;;;;;;5102702;28;19989;-75
2023/04/08 06:46:38;;;;;;;;;;;6.60;99.90;;;;;;5105686;28;19942;-75
2023/04/08 06:49:05;;;;;;;;;;;6.70;99.90;;;;;;5101667;28;19935;-75
2023/04/08 06:51:31;;;;;;;;;;;6.70;99.90;;;;;;5098736;28;19920;-75
2023/04/08 06:53:57;;;;;;;;;;;6.70;99.90;;;;;;5106704;28;19923;-76
2023/04/08 06:56:25;;;;;;;;;;;6.70;99.90;;;;;;5108691;28;19930;-75
2023/04/08 06:58:50;;;;;;;;;;;6.70;99.90;;;;;;5105256;28;20301;-76
2023/04/08 07:01:16;;;;;;;;;;;6.70;99.90;;;;;;5108219;28;19919;-74
2023/04/08 07:03:42;;;;;;;;;;;6.70;99.90;;;;;;5094608;28;19923;-76
2023/04/08 07:06:07;;;;;;;;;;;6.70;99.90;;;;;;5108596;28;19923;-76
2023/04/08 07:08:33;;;;;;;;;;;6.70;99.90;;;;;;5106658;28;19920;-75
2023/04/08 07:10:58;;;;;;;;;;;6.70;99.90;;;;;;5107923;28;20385;-75
2023/04/08 07:13:24;;;;;;;;;;;6.70;99.90;;;;;;5104286;28;19927;-76
2023/04/08 07:15:50;;;;;;;;;;;6.70;99.90;;;;;;5098072;28;19920;-76
2023/04/08 07:18:16;;;;;;;;;;;6.70;99.90;;;;;;5102817;28;20022;-75
2023/04/08 07:20:41;;;;;;;;;;;6.80;99.90;;;;;;5107432;28;20292;-75
2023/04/08 07:23:07;;;;;;;;;;;6.70;99.90;;;;;;5102446;28;19927;-75
2023/04/08 07:25:34;;;;;;;;;;;6.70;99.90;;;;;;5092983;28;19924;-77
2023/04/08 07:27:59;;;;;;;;;;;6.70;99.90;;;;;;5088195;28;20653;-76
2023/04/08 07:30:25;;;;;;;;;;;6.80;99.90;;;;;;5075664;28;20055;-77
2023/04/08 07:32:51;;;;;;;;;;;6.80;99.90;;;;;;5083473;28;20008;-77
2023/04/08 07:35:22;;;;;;;;;;;6.80;99.90;;;;;;5085393;28;20409;-77
2023/04/08 07:37:48;;;;;;;;;;;6.90;99.90;;;;;;5089864;28;19934;-76
2023/04/08 07:40:14;;;;;;;;;;;7.00;99.90;;;;;;5081738;28;19929;-77
2023/04/08 07:42:40;;;;;;;;;;;7.00;99.90;;;;;;5076731;28;20662;-77
2023/04/08 07:45:06;;;;;;;;;;;7.10;99.90;;;;;;5076143;28;20062;-76
2023/04/08 07:47:32;;;;;;;;;;;7.10;99.90;;;;;;5089756;28;19923;-75
2023/04/08 07:49:57;;;;;;;;;;;7.10;99.90;;;;;;5091017;28;19927;-77
2023/04/08 07:52:23;;;;;;;;;;;7.10;99.90;;;;;;5097050;28;19930;-77
2023/04/08 07:54:48;;;;;;;;;;;7.20;99.90;;;;;;5100694;28;20275;-77
2023/04/08 07:57:14;;;;;;;;;;;7.20;99.90;;;;;;5107963;28;19927;-77
2023/04/08 07:59:40;;;;;;;;;;;7.30;99.90;;;;;;5109827;28;19919;-77
2023/04/08 08:02:05;;;;;;;;;;;7.30;99.90;;;;;;5095807;28;19981;-77
2023/04/08 08:04:31;;;;;;;;;;;7.30;99.90;;;;;;5109135;28;20015;-78
2023/04/08 08:06:56;;;;;;;;;;;7.40;99.90;;;;;;5104867;28;19934;-75
2023/04/08 08:09:22;;;;;;;;;;;7.50;99.90;;;;;;5110121;28;19946;-76
2023/04/08 08:11:48;;;;;;;;;;;7.60;99.90;;;;;;5106077;28;19920;-76
2023/04/08 08:14:14;;;;;;;;;;;7.60;99.90;;;;;;5108655;28;20389;-76
2023/04/08 08:16:40;;;;;;;;;;;7.70;99.90;;;;;;5104320;28;20339;-76
2023/04/08 08:19:07;;;;;;;;;;;7.70;99.90;;;;;;5109457;28;20043;-76
2023/04/08 08:21:36;;;;;;;;;;;7.80;99.90;;;;;;5089681;28;19920;-75
2023/04/08 08:24:01;;;;;;;;;;;7.80;99.90;;;;;;5088300;28;19927;-76
2023/04/08 08:26:27;;;;;;;;;;;7.90;99.90;;;;;;5102755;28;19928;-76
2023/04/08 08:28:53;;;;;;;;;;;7.90;99.90;;;;;;5098467;28;19959;-76
2023/04/08 08:31:18;;;;;;;;;;;8.00;99.90;;;;;;5086677;28;20377;-74
2023/04/08 08:33:44;;;;;;;;;;;8.10;99.90;;;;;;5094367;28;20384;-74
2023/04/08 08:36:10;;;;;;;;;;;8.20;99.90;;;;;;5100182;28;19920;-73
2023/04/08 08:38:35;;;;;;;;;;;8.20;99.90;;;;;;5086806;28;19920;-74
2023/04/08 08:41:02;;;;;;;;;;;8.30;99.90;;;;;;5100180;28;19923;-74
2023/04/08 08:43:28;;;;;;;;;;;8.50;99.90;;;;;;5098921;28;20006;-74
2023/04/08 08:45:54;;;;;;;;;;;8.50;99.90;;;;;;5095979;27;20030;-75
2023/04/08 08:48:20;;;;;;;;;;;8.60;99.90;;;;;;5091845;28;19919;-75
2023/04/08 08:50:45;;;;;;;;;;;8.60;99.90;;;;;;5090296;28;19931;-75
2023/04/08 08:53:11;;;;;;;;;;;8.70;99.90;;;;;;5106398;28;19958;-75
2023/04/08 08:55:38;;;;;;;;;;;8.70;99.90;;;;;;5092091;28;20305;-74
2023/04/08 08:58:04;;;;;;;;;;;8.70;99.90;;;;;;5100013;28;20292;-75
2023/04/08 09:00:34;;;;;;;;;;;8.70;99.90;;;;;;5105541;28;19995;-74
2023/04/08 09:03:11;;;;;;;;;;;8.70;99.90;;;;;;5091099;28;20343;-75
2023/04/08 09:05:57;;;;;;;;;;;8.70;99.90;;;;;;5092650;28;20472;-75
2023/04/08 09:08:27;;;;;;;;;;;8.70;99.90;;;;;;5091582;28;20019;-75
2023/04/08 09:10:53;;;;;;;;;;;8.80;99.90;;;;;;5107668;28;19934;-74
2023/04/08 09:13:20;;;;;;;;;;;8.90;99.90;;;;;;5093153;28;20678;-74
2023/04/08 09:16:08;;;;;;;;;;;8.90;99.90;;;;;;5099803;28;19920;-75
2023/04/08 09:18:33;;;;;;;;;;;9.00;99.90;;;;;;5090051;28;19919;-74
2023/04/08 09:21:00;;;;;;;;;;;9.10;99.90;;;;;;5105937;28;19931;-75
2023/04/08 09:23:41;;;;;;;;;;;9.20;99.90;;;;;;5098635;28;20007;-75
2023/04/08 09:26:11;;;;;;;;;;;9.30;99.90;;;;;;5096383;28;19963;-75
2023/04/08 09:28:37;;;;;;;;;;;9.30;99.90;;;;;;5093603;28;19920;-75
2023/04/08 09:31:19;;;;;;;;;;;9.40;99.90;;;;;;5094708;27;20015;-75
2023/04/08 09:33:46;;;;;;;;;;;9.40;99.90;;;;;;5088249;28;19927;-75
2023/04/08 09:36:11;;;;;;;;;;;9.60;99.90;;;;;;5090838;28;20013;-73
2023/04/08 09:38:37;;;;;;;;;;;9.70;99.90;;;;;;5095074;28;20470;-74
2023/04/08 09:41:05;;;;;;;;;;;9.90;99.90;;;;;;5097610;28;19920;-74
2023/04/08 09:43:31;;;;;;;;;;;10.00;99.90;;;;;;5084110;28;20016;-75
2023/04/08 09:45:59;;;;;;;;;;;9.90;99.90;;;;;;5097696;28;19930;-75
2023/04/08 09:48:26;;;;;;;;;;;9.90;99.90;;;;;;5092333;28;19919;-75
2023/04/08 09:50:56;;;;;;;;;;;9.90;99.90;;;;;;5093303;28;19992;-76
2023/04/08 09:53:28;;;;;;;;;;;10.00;99.90;;;;;;5109267;28;20404;-75
2023/04/08 09:55:55;;;;;;;;;;;10.00;99.90;;;;;;5106906;28;19931;-76
2023/04/08 09:58:26;;;;;;;;;;;10.10;99.90;;;;;;5108046;28;19920;-75
2023/04/08 10:00:53;;;;;;;;;;;10.10;99.90;;;;;;5094685;28;19923;-75
2023/04/08 10:03:18;;;;;;;;;;;10.00;99.90;;;;;;5105280;28;19920;-75
2023/04/08 10:05:45;;;;;;;;;;;10.00;99.90;;;;;;5106145;28;19920;-76
2023/04/08 10:08:11;;;;;;;;;;;10.00;99.90;;;;;;5106090;28;19964;-75
2023/04/08 10:10:40;;;;;;;;;;;10.00;99.90;;;;;;5106859;28;19919;-75
2023/04/08 10:13:06;;;;;;;;;;;9.90;99.90;;;;;;5105981;28;19920;-75
2023/04/08 10:15:32;;;;;;;;;;;9.90;99.90;;;;;;5107937;28;20449;-75
2023/04/08 10:18:05;;;;;;;;;;;9.90;99.90;;;;;;5092334;28;19942;-75
2023/04/08 10:20:33;;;;;;;;;;;9.80;99.90;;;;;;5090935;28;20274;-74
2023/04/08 10:22:59;;;;;;;;;;;9.80;99.90;;;;;;5102324;28;19920;-75
2023/04/08 10:25:24;;;;;;;;;;;9.90;99.90;;;;;;5088488;28;20278;-76
2023/04/08 10:27:50;;;;;;;;;;;9.90;99.90;;;;;;5074775;28;20399;-75
2023/04/08 10:30:27;;;;;;;;;;;9.90;99.90;;;;;;5095552;28;19919;-75
2023/04/08 10:32:55;;;;;;;;;;;10.00;99.90;;;;;;5100661;28;20373;-76
2023/04/08 10:35:30;;;;;;;;;;;10.00;99.90;;;;;;5064422;28;19981;-75
2023/04/08 10:37:57;;;;;;;;;;;10.00;99.90;;;;;;5100683;28;19927;-75
2023/04/08 10:40:23;;;;;;;;;;;10.00;99.90;;;;;;5099066;28;19923;-75
2023/04/08 10:42:55;;;;;;;;;;;10.00;99.90;;;;;;5102544;28;20289;-75
2023/04/08 10:45:21;;;;;;;;;;;10.00;99.90;;;;;;5080004;28;19923;-75
2023/04/08 10:47:46;;;;;;;;;;;10.00;99.90;;;;;;5101781;28;20281;-75
2023/04/08 10:50:17;;;;;;;;;;;9.90;99.90;;;;;;5092011;28;19965;-75
2023/04/08 10:52:49;;;;;;;;;;;9.90;99.90;;;;;;5094845;28;19928;-75
2023/04/08 10:55:15;;;;;;;;;;;9.90;99.90;;;;;;5076431;28;20282;-75
2023/04/08 10:57:41;;;;;;;;;;;9.90;99.90;;;;;;5086360;28;20038;-74
2023/04/08 11:00:10;;;;;;;;;;;9.90;99.90;;;;;;5079074;28;19920;-74
2023/04/08 11:02:38;;;;;;;;;;;9.90;99.90;;;;;;5080444;28;20463;-74
2023/04/08 11:05:04;;;;;;;;;;;10.00;99.90;;;;;;5084281;28;19927;-75
2023/04/08 11:07:30;;;;;;;;;;;10.10;99.90;;;;;;5080235;28;19920;-75
2023/04/08 11:09:55;;;;;;;;;;;10.10;99.90;;;;;;5083824;28;20305;-75
2023/04/08 11:12:21;;;;;;;;;;;10.10;99.90;;;;;;5090647;28;19979;-75
2023/04/08 11:14:48;;;;;;;;;;;10.10;99.90;;;;;;5087130;28;20304;-75
2023/04/08 11:17:14;;;;;;;;;;;10.20;99.90;;;;;;5083799;28;19924;-75
2023/04/08 11:19:40;;;;;;;;;;;10.20;99.90;;;;;;5087442;28;19959;-75
2023/04/08 11:22:08;;;;;;;;;;;10.30;99.90;;;;;;5086930;28;19975;-75
2023/04/08 11:24:35;;;;;;;;;;;10.30;99.90;;;;;;5091608;28;19927;-75
2023/04/08 11:27:02;;;;;;;;;;;10.30;99.90;;;;;;5093264;28;19988;-74
2023/04/08 11:29:28;;;;;;;;;;;10.50;99.90;;;;;;5084877;28;20007;-74
2023/04/08 11:31:53;;;;;;;;;;;10.60;99.90;;;;;;5079320;28;19924;-75
2023/04/08 11:34:23;;;;;;;;;;;10.70;99.90;;;;;;5097968;28;19927;-74
2023/04/08 11:36:49;;;;;;;;;;;10.70;99.90;;;;;;5096721;28;19927;-75
2023/04/08 11:39:14;;;;;;;;;;;10.80;99.90;;;;;;5098525;28;19920;-75
2023/04/08 11:41:40;;;;;;;;;;;10.80;99.90;;;;;;5096838;28;19919;-74
2023/04/08 11:44:06;;;;;;;;;;;10.90;99.90;;;;;;5086136;28;19947;-75
2023/04/08 11:46:32;;;;;;;;;;;11.00;99.90;;;;;;5095506;28;19923;-75
2023/04/08 11:48:58;;;;;;;;;;;11.00;99.90;;;;;;5094107;28;20019;-75
2023/04/08 11:51:25;;;;;;;;;;;10.90;99.90;;;;;;5087447;28;19947;-75
2023/04/08 11:53:50;;;;;;;;;;;10.90;99.90;;;;;;5097803;28;19920;-75
2023/04/08 11:56:21;;;;;;;;;;;11.10;99.90;;;;;;5105708;28;19927;-74
2023/04/08 11:58:46;;;;;;;;;;;11.10;99.90;;;;;;5081633;28;20001;-75
2023/04/08 12:01:12;;;;;;;;;;;11.10;99.90;;;;;;5099090;28;19919;-75
2023/04/08 12:03:38;;;;;;;;;;;11.30;99.90;;;;;;5101201;28;20752;-76
2023/04/08 12:06:04;;;;;;;;;;;11.40;99.90;;;;;;5100273;28;19927;-76
2023/04/08 12:08:30;;;;;;;;;;;11.60;99.90;;;;;;5094367;28;20389;-76
2023/04/08 12:10:56;;;;;;;;;;;11.80;99.90;;;;;;5083085;28;19931;-76
2023/04/08 12:13:21;;;;;;;;;;;11.90;99.90;;;;;;5098757;28;19931;-76
2023/04/08 12:15:47;;;;;;;;;;;12.10;99.90;;;;;;5094010;28;19924;-76
2023/04/08 12:18:12;;;;;;;;;;;12.40;99.90;;;;;;5105071;28;19920;-75
2023/04/08 12:20:37;;;;;;;;;;;12.80;99.90;;;;;;5101155;28;19928;-76
2023/04/08 12:23:03;;;;;;;;;;;13.30;99.90;;;;;;5091268;28;19919;-74
2023/04/08 12:25:30;;;;;;;;;;;13.60;99.90;;;;;;5092593;28;19924;-73
2023/04/08 12:27:55;;;;;;;;;;;13.90;99.90;;;;;;5103929;28;19920;-73
2023/04/08 12:30:21;;;;;;;;;;;14.10;99.90;;;;;;5107110;28;20092;-73
2023/04/08 12:32:47;;;;;;;;;;;14.30;99.90;;;;;;5105509;28;19977;-73
2023/04/08 12:35:12;;;;;;;;;;;14.30;99.90;;;;;;5103018;28;20313;-73
2023/04/08 12:37:38;;;;;;;;;;;14.30;99.90;;;;;;5091453;28;20301;-73
2023/04/08 12:40:03;;;;;;;;;;;14.30;99.90;;;;;;5101409;28;19920;-72
2023/04/08 12:42:30;;;;;;;;;;;14.30;99.90;;;;;;5080872;28;19919;-73
2023/04/08 12:44:56;;;;;;;;;;;14.30;99.90;;;;;;5103932;28;19959;-73
2023/04/08 12:47:22;;;;;;;;;;;14.30;99.90;;;;;;5103468;28;20305;-72
2023/04/08 12:49:48;;;;;;;;;;;14.30;99.90;;;;;;5100441;28;19920;-73
2023/04/08 12:52:14;;;;;;;;;;;14.40;99.90;;;;;;5082638;28;19920;-73
2023/04/08 12:54:39;;;;;;;;;;;14.50;99.90;;;;;;5090952;28;20294;-73
2023/04/08 12:57:05;;;;;;;;;;;14.50;99.90;;;;;;5106415;28;19927;-73
2023/04/08 12:59:32;;;;;;;;;;;14.40;99.90;;;;;;5101279;28;19927;-73
2023/04/08 13:01:58;;;;;;;;;;;14.10;99.90;;;;;;5084568;28;20267;-73
2023/04/08 13:04:23;;;;;;;;;;;13.90;99.90;;;;;;5085833;28;19974;-73
2023/04/08 13:06:48;;;;;;;;;;;13.80;99.90;;;;;;5090590;28;19927;-73
2023/04/08 13:09:14;;;;;;;;;;;13.70;99.90;;;;;;5073231;28;19927;-73
2023/04/08 13:11:40;;;;;;;;;;;13.70;99.90;;;;;;5086263;28;20534;-73
2023/04/08 13:14:06;;;;;;;;;;;13.70;99.90;;;;;;5102037;28;19920;-73
2023/04/08 13:16:31;;;;;;;;;;;13.80;99.90;;;;;;5090303;28;20344;-73
2023/04/08 13:18:57;;;;;;;;;;;13.90;99.90;;;;;;5087898;28;19958;-73
2023/04/08 13:21:22;;;;;;;;;;;14.00;99.90;;;;;;5099636;28;19920;-73
2023/04/08 13:23:48;;;;;;;;;;;14.20;99.90;;;;;;5099149;28;19920;-73
2023/04/08 13:26:14;;;;;;;;;;;14.20;99.90;;;;;;5102579;28;19928;-73
2023/04/08 13:28:40;;;;;;;;;;;14.20;99.90;;;;;;5109995;28;19965;-74
2023/04/08 13:31:05;;;;;;;;;;;14.10;99.90;;;;;;5102452;28;19920;-73
2023/04/08 13:33:31;;;;;;;;;;;14.10;99.90;;;;;;5109183;28;19935;-73
2023/04/08 13:35:56;;;;;;;;;;;14.40;99.90;;;;;;5092238;28;19927;-73
2023/04/08 13:38:22;;;;;;;;;;;14.50;99.90;;;;;;5110140;28;20468;-73
2023/04/08 13:40:49;;;;;;;;;;;14.70;99.90;;;;;;5094123;28;20274;-73
2023/04/08 13:43:14;;;;;;;;;;;14.70;99.90;;;;;;5100126;28;20010;-73
2023/04/08 13:45:40;;;;;;;;;;;14.60;99.90;;;;;;5080923;28;20393;-73
2023/04/08 13:48:06;;;;;;;;;;;14.50;99.90;;;;;;5084657;28;20052;-73
2023/04/08 13:50:31;;;;;;;;;;;14.40;99.90;;;;;;5087713;28;20271;-75
2023/04/08 13:52:57;;;;;;;;;;;14.40;99.90;;;;;;5099220;28;19931;-74
2023/04/08 13:55:22;;;;;;;;;;;14.50;99.90;;;;;;5089534;28;20001;-74
2023/04/08 13:57:48;;;;;;;;;;;14.50;99.90;;;;;;5089868;28;19997;-75
2023/04/08 14:00:14;;;;;;;;;;;14.40;99.90;;;;;;5089555;28;20393;-74
2023/04/08 14:02:39;;;;;;;;;;;14.50;99.90;;;;;;5070647;28;19924;-75
2023/04/08 14:05:05;;;;;;;;;;;14.80;99.90;;;;;;5081859;28;20402;-74
2023/04/08 14:07:31;;;;;;;;;;;15.70;99.90;;;;;;5082310;28;19969;-74
2023/04/08 14:09:56;;;;;;;;;;;16.60;99.90;;;;;;5085703;28;19982;-74
2023/04/08 14:12:22;;;;;;;;;;;16.70;99.90;;;;;;5088453;28;20012;-74
2023/04/08 14:14:47;;;;;;;;;;;16.70;99.90;;;;;;5087961;28;20374;-74
2023/04/08 14:17:13;;;;;;;;;;;16.90;99.90;;;;;;5090435;28;20391;-74
2023/04/08 14:19:39;;;;;;;;;;;16.90;99.90;;;;;;5090859;28;20389;-74
2023/04/08 14:22:05;;;;;;;34.88;27.90;;;17.40;99.90;;;;;;5088674;28;19927;-74